Victoria International Airport

CYYJ · Brits-Columbia, Canada

2 oktober 2022

Tijd Code Weer Temp. Zicht Plafond Wind METAR/SPECI
23:00
V
12 °C 30 mi - 260° 260° 3 kt METAR CYYJ 030600Z 26003KT 30SM FEW230 12/10 A3001 RMK CI1 CI TR SLP163
22:00
V
13 °C 30 mi - Var 000° 0 kt METAR CYYJ 030500Z 00000KT 30SM FEW230 13/10 A2999 RMK CI1 CI TR SLP159
21:00
V
15 °C 30 mi - Var 000° 0 kt METAR CYYJ 030400Z 00000KT 30SM FEW230 15/11 A2998 RMK CI1 SLP155 DENSITY ALT 100FT
20:00
V
16 °C 30 mi - Var 000° 0 kt METAR CYYJ 030300Z 00000KT 30SM FEW230 16/10 A2997 RMK CI1 SLP151 DENSITY ALT 200FT
19:00
V
18 °C 30 mi - Var 000° 0 kt METAR CYYJ 030200Z 00000KT 30SM FEW200 FEW250 18/11 A2997 RMK CI1CI2 CI TR SLP149 DENSITY ALT 500FT
18:00
V
21 °C 30 mi - 090° 090° 3 kt METAR CYYJ 030100Z 09003KT 30SM FEW250 21/11 A2996 RMK CI1 CI TR SLP148 DENSITY ALT 800FT
17:00
V
22 °C 30 mi - 100° 100° 3 kt METAR CYYJ 030000Z 10003KT 30SM SKC 22/11 A2996 RMK SLP148 DENSITY ALT 900FT
16:00
V
23 °C 30 mi - 070° 070° 5 kt METAR CYYJ 022300Z 07005KT 30SM SKC 23/11 A2997 RMK SLP150 DENSITY ALT 1000FT
15:00
V
23 °C 30 mi - 090° 090° 6 kt METAR CYYJ 022200Z 09006KT 060V130 30SM SKC 23/12 A2997 RMK SLP151 DENSITY ALT 1000FT
14:00
V
23 °C 30 mi - 090° 090° 6 kt METAR CYYJ 022100Z 09006KT 30SM SKC 23/11 A2999 RMK SLP156 DENSITY ALT 900FT
13:00
V
22 °C 30 mi - 070° 070° 5 kt METAR CYYJ 022000Z 07005KT 030V100 30SM SKC 22/11 A2999 RMK SLP159 DENSITY ALT 900FT
12:00
V
22 °C 30 mi - 110° 110° 2 kt METAR CYYJ 021900Z 11002KT 30SM SKC 22/11 A3000 RMK SLP161 DENSITY ALT 800FT
11:00
V
21 °C 30 mi - Var Var 2 kt METAR CYYJ 021800Z VRB02KT 30SM SKC 21/10 A3000 RMK SLP162 DENSITY ALT 800FT
10:00
V
18 °C 30 mi - Var 000° 0 kt METAR CYYJ 021700Z 00000KT 30SM SKC 18/11 A3000 RMK SLP162 DENSITY ALT 400FT
09:00
V
15 °C 30 mi - 270° 270° 3 kt METAR CYYJ 021600Z 27003KT 30SM SKC 15/10 A3000 RMK SLP160
08:00
V
12 °C 30 mi - 240° 240° 3 kt METAR CYYJ 021500Z 24003KT 30SM SKC 12/09 A2999 RMK SLP156
07:00
V
11 °C 30 mi - 250° 250° 3 kt METAR CYYJ 021400Z 25003KT 30SM FEW250 11/10 A2997 RMK CI1 SLP149
06:00
V
10 °C 30 mi - 260° 260° 5 kt METAR CYYJ 021300Z 26005KT 30SM SKC 10/10 A2996 RMK SLP147
05:00
V
11 °C 30 mi - 270° 270° 4 kt METAR CYYJ 021200Z 27004KT 30SM SKC 11/11 A2996 RMK SLP146
04:00
V
11 °C 30 mi - 240° 240° 4 kt METAR CYYJ 021100Z 24004KT 30SM SKC 11/10 A2995 RMK SLP143
03:00
V
12 °C 30 mi - 250° 250° 4 kt METAR CYYJ 021000Z 25004KT 30SM SKC 12/10 A2995 RMK SLP143
02:00
V
12 °C 30 mi - 270° 270° 5 kt METAR CYYJ 020900Z 27005KT 30SM SKC 12/11 A2994 RMK SLP142
01:00
V
12 °C 30 mi - Var Var 2 kt METAR CYYJ 020800Z VRB02KT 30SM SKC 12/11 A2994 RMK SLP142
00:00
V
11 °C 30 mi - Var 000° 0 kt METAR CYYJ 020700Z 00000KT 30SM SKC 11/10 A2995 RMK SLP143

1 oktober 2022

Tijd Code Weer Temp. Zicht Plafond Wind METAR/SPECI
23:00
V
12 °C 30 mi - 220° 220° 3 kt METAR CYYJ 020600Z 22003KT 30SM SKC 12/10 A2994 RMK SLP141
22:00
V
13 °C 30 mi - Var 000° 0 kt METAR CYYJ 020500Z 00000KT 30SM SKC 13/10 A2994 RMK SLP142
21:00
V
14 °C 30 mi - Var Var 2 kt METAR CYYJ 020400Z VRB02KT 30SM SKC 14/11 A2994 RMK SLP141
20:00
V
16 °C 30 mi - Var Var 2 kt METAR CYYJ 020300Z VRB02KT 30SM FEW250 16/11 A2994 RMK CI1 CI TR SLP141 DENSITY ALT 200FT
19:00
V
18 °C 30 mi - Var Var 2 kt METAR CYYJ 020200Z VRB02KT 30SM FEW250 18/11 A2994 RMK CI1 SLP140 DENSITY ALT 400FT
18:00
V
20 °C 30 mi - 080° 080° 4 kt METAR CYYJ 020100Z 08004KT 30SM FEW250 20/11 A2994 RMK CI1 SLP142 DENSITY ALT 700FT
17:00
V
22 °C 30 mi - 090° 090° 6 kt METAR CYYJ 020000Z 09006KT 30SM FEW250 22/11 A2996 RMK CI1 SLP146 DENSITY ALT 900FT
16:00
V
22 °C 30 mi - 050° 050° 4 kt METAR CYYJ 012300Z 05004KT 030V110 30SM FEW250 22/12 A2997 RMK CI1 SLP150 DENSITY ALT 900FT
15:00
V
23 °C 30 mi - 090° 090° 5 kt METAR CYYJ 012200Z 09005KT 30SM SKC 23/12 A2999 RMK SLP156 DENSITY ALT 1000FT
14:00
V
23 °C 30 mi - 080° 080° 5 kt METAR CYYJ 012100Z 08005KT 330V110 30SM SKC 23/12 A3001 RMK SLP163 DENSITY ALT 1000FT
13:00
V
22 °C 30 mi - 070° 070° 5 kt METAR CYYJ 012000Z 07005KT 020V100 30SM SKC 22/12 A3003 RMK SLP171 DENSITY ALT 800FT
12:00
V
21 °C 30 mi - 260° 260° 3 kt METAR CYYJ 011900Z 26003KT 230V320 30SM SKC 21/11 A3005 RMK SLP177 DENSITY ALT 600FT
11:00
V
19 °C 30 mi - 290° 290° 4 kt METAR CYYJ 011800Z 29004KT 30SM SKC 19/11 A3007 RMK SLP183 DENSITY ALT 400FT
10:00
V
17 °C 30 mi - 280° 280° 5 kt METAR CYYJ 011700Z 28005KT 30SM SKC 17/11 A3008 RMK SLP188 DENSITY ALT 200FT
09:00
V
15 °C 30 mi - Var Var 2 kt METAR CYYJ 011600Z VRB02KT 30SM SKC 15/12 A3009 RMK SLP191
08:00
V
12 °C 30 mi - 290° 290° 7 kt METAR CYYJ 011500Z 29007KT 30SM FEW250 12/10 A3009 RMK CI1 CI TR SLP192
07:00
V
11 °C 30 mi - 280° 280° 5 kt METAR CYYJ 011400Z 28005KT 30SM FEW200 11/11 A3009 RMK CI1 CI TR SLP192
06:00
V
11 °C 30 mi - 270° 270° 4 kt METAR CYYJ 011300Z 27004KT 30SM SKC 11/11 A3009 RMK SLP192
05:00
V
11 °C 30 mi - 270° 270° 5 kt METAR CYYJ 011200Z 27005KT 30SM SKC 11/11 A3009 RMK SLP192
04:00
V
11 °C 30 mi - 240° 240° 6 kt METAR CYYJ 011100Z 24006KT 30SM SKC 11/11 A3009 RMK SLP192
03:00
V
10 °C 30 mi - 240° 240° 4 kt METAR CYYJ 011000Z 24004KT 30SM SKC 10/10 A3010 RMK SLP193
02:00
V
11 °C 30 mi - 250° 250° 5 kt METAR CYYJ 010900Z 25005KT 30SM SKC 11/11 A3010 RMK SLP193
01:00
V
11 °C 30 mi - 280° 280° 4 kt METAR CYYJ 010800Z 28004KT 30SM SKC 11/11 A3010 RMK SLP193
00:00
V
11 °C 30 mi - 300° 300° 4 kt METAR CYYJ 010700Z 30004KT 280V350 30SM SKC 11/11 A3010 RMK SLP195

30 september 2022

Tijd Code Weer Temp. Zicht Plafond Wind METAR/SPECI
23:00
V
11 °C 30 mi - 200° 200° 2 kt METAR CYYJ 010600Z 20002KT 30SM FEW250 11/11 A3009 RMK CI1 CI TR SLP192
22:00
V
12 °C 30 mi - Var 000° 0 kt METAR CYYJ 010500Z 00000KT 30SM SKC 12/11 A3009 RMK SLP190
Oudere gegevens

Met cookies volgen wij en derde partijen jouw internetgedrag binnen onze site. Als je verdergaat gaan we ervan uit dat je dit goedvindt. Meer info